Time;durP1;ratioP1;P1;durP2;ratioP2;P2;SDS_P1;SDS_P2;PMS_P1;PMS_P2;Temp;Humidity;BMP_temperature;BMP_pressure;BME280_temperature;BME280_humidity;BME280_pressure;Samples;Min_cycle;Max_cycle;Signal;HPM_P1;HPM_P2
2023/03/31 00:01:00;;;;;;;1.00;1.00;;;;;;;9.35;43.57;100091.66;5090367;28;20206;-74
2023/03/31 00:03:28;;;;;;;1.00;1.00;;;;;;;9.56;42.19;100107.63;5090527;28;20221;-76
2023/03/31 00:05:56;;;;;;;0.90;0.90;;;;;;;9.68;41.80;100106.97;5055652;28;20206;-75
2023/03/31 00:08:23;;;;;;;0.90;0.90;;;;;;;9.72;42.04;100108.78;5090611;28;20225;-75
2023/03/31 00:10:50;;;;;;;0.90;0.90;;;;;;;9.71;41.94;100097.56;5090716;28;20225;-75
2023/03/31 00:13:17;;;;;;;0.90;0.90;;;;;;;9.76;42.97;100100.25;5090878;28;20202;-75
2023/03/31 00:15:44;;;;;;;1.00;1.00;;;;;;;9.58;43.14;100071.41;5090516;28;20233;-75
2023/03/31 00:18:11;;;;;;;0.90;0.90;;;;;;;9.72;43.26;100088.06;5090749;28;20689;-74
2023/03/31 00:20:41;;;;;;;1.13;1.13;;;;;;;9.66;43.23;100075.91;5091799;28;20197;-75
2023/03/31 00:23:09;;;;;;;0.90;0.90;;;;;;;9.64;43.04;100080.16;5094860;28;20198;-75
2023/03/31 00:25:40;;;;;;;0.90;0.90;;;;;;;9.64;41.75;100067.22;5095118;28;20202;-75
2023/03/31 00:28:07;;;;;;;0.98;0.98;;;;;;;9.43;41.26;100003.00;5094479;28;20222;-74
2023/03/31 00:30:33;;;;;;;1.30;1.30;;;;;;;10.08;40.01;100074.91;5094395;28;20198;-75
2023/03/31 00:33:00;;;;;;;1.05;1.05;;;;;;;10.11;40.42;100070.66;5094933;28;20198;-76
2023/03/31 00:35:27;;;;;;;1.00;1.00;;;;;;;10.07;40.54;100044.66;5094192;28;20233;-75
2023/03/31 00:37:56;;;;;;;1.00;1.00;;;;;;;9.80;41.15;99988.13;5094095;28;20201;-76
2023/03/31 00:40:23;;;;;;;1.13;1.13;;;;;;;10.30;39.89;100070.13;5094627;28;20198;-74
2023/03/31 00:42:50;;;;;;;1.00;1.00;;;;;;;10.21;39.81;100041.47;5094785;28;20681;-75
2023/03/31 00:45:29;;;;;;;0.90;0.90;;;;;;;10.46;39.80;100053.09;5042270;28;20574;-74
2023/03/31 00:48:03;;;;;;;1.00;1.00;;;;;;;10.47;40.08;100046.19;5093646;28;20267;-72
2023/03/31 00:50:35;;;;;;;1.00;1.00;;;;;;;10.54;39.82;100037.66;5094024;28;20288;-75
2023/03/31 00:53:10;;;;;;;1.20;1.20;;;;;;;10.63;41.06;100045.56;5094284;28;20190;-76
2023/03/31 00:55:42;;;;;;;0.93;0.93;;;;;;;10.64;40.62;100044.69;5038675;28;20229;-75
2023/03/31 00:58:13;;;;;;;0.90;0.90;;;;;;;10.54;42.18;100051.47;5087342;28;20213;-73
2023/03/31 01:00:40;;;;;;;0.90;0.90;;;;;;;10.40;45.24;100034.84;5094404;28;20191;-75
2023/03/31 01:03:09;;;;;;;0.90;0.90;;;;;;;10.30;47.91;100043.34;5092428;28;20191;-75
2023/03/31 01:05:43;;;;;;;0.95;0.95;;;;;;;10.27;49.30;100043.31;5093503;28;20671;-76
2023/03/31 01:08:12;;;;;;;1.00;1.00;;;;;;;10.22;51.08;100045.81;5041675;28;20259;-75
2023/03/31 01:10:41;;;;;;;1.10;1.10;;;;;;;10.11;57.46;100042.16;5041486;28;20205;-75
2023/03/31 01:13:10;;;;;;;0.88;0.88;;;;;;;9.86;66.76;100021.88;5094025;28;20221;-75
2023/03/31 01:15:37;;;;;;;1.10;1.10;;;;;;;9.70;71.48;100006.94;5093829;28;20316;-75
2023/03/31 01:18:05;;;;;;;1.15;1.15;;;;;;;9.78;72.97;100020.84;5094687;28;20219;-74
2023/03/31 01:20:37;;;;;;;0.90;0.90;;;;;;;9.77;73.31;100013.97;5055003;28;20213;-74
2023/03/31 01:23:43;;;;;;;0.70;0.70;;;;;;;9.85;71.52;100020.13;5101671;28;20227;-74
2023/03/31 01:26:48;;;;;;;1.00;1.00;;;;;;;9.90;67.52;100019.38;5019892;28;20197;-75
2023/03/31 01:29:40;;;;;;;0.70;0.70;;;;;;;9.98;54.11;100011.72;5019348;28;20197;-73
2023/03/31 01:32:32;;;;;;;0.95;0.95;;;;;;;9.95;56.41;99994.41;4963295;28;20224;-75
2023/03/31 01:35:22;;;;;;;0.90;0.90;;;;;;;10.09;51.30;100012.78;5011923;28;20232;-76
2023/03/31 01:38:27;;;;;;;0.88;0.88;;;;;;;10.33;48.98;100005.41;5012135;28;20201;-76
2023/03/31 01:41:18;;;;;;;0.90;0.90;;;;;;;10.48;46.73;100011.66;5011313;28;20220;-75
2023/03/31 01:43:52;;;;;;;0.80;0.80;;;;;;;10.59;45.88;100023.03;5011213;28;20661;-75
2023/03/31 01:46:28;;;;;;;1.00;1.00;;;;;;;10.57;45.01;100003.97;5010920;28;20207;-76
2023/03/31 01:49:03;;;;;;;0.90;0.90;;;;;;;10.70;44.97;100014.53;5010789;28;20200;-76
2023/03/31 01:51:35;;;;;;;1.00;1.00;;;;;;;10.79;45.76;100025.03;5011102;28;20200;-75
2023/03/31 01:54:12;;;;;;;0.90;0.90;;;;;;;10.75;45.92;100015.47;5011252;28;20216;-75
2023/03/31 01:56:46;;;;;;;0.90;0.90;;;;;;;10.69;45.10;99998.97;5010719;28;20215;-75
2023/03/31 01:59:18;;;;;;;1.00;1.00;;;;;;;10.75;44.92;100012.00;5010197;28;20239;-74
2023/03/31 02:01:52;;;;;;;0.90;0.90;;;;;;;10.75;48.28;100012.00;5050859;28;20202;-75
2023/03/31 02:04:22;;;;;;;0.90;0.90;;;;;;;10.75;48.66;100012.00;5090285;28;20202;-75
2023/03/31 02:06:55;;;;;;;0.80;0.80;;;;;;;10.75;49.01;100015.47;5092867;28;20202;-75
2023/03/31 02:09:25;;;;;;;0.80;0.80;;;;;;;10.73;46.52;100017.19;5092826;28;20202;-74
2023/03/31 02:11:57;;;;;;;0.77;0.77;;;;;;;10.73;45.72;100014.59;5093293;28;20285;-75
2023/03/31 02:14:28;;;;;;;0.90;0.90;;;;;;;10.75;45.31;100017.19;5092434;28;20205;-75
2023/03/31 02:16:58;;;;;;;0.80;0.80;;;;;;;10.73;45.87;100018.91;5093241;28;20202;-74
2023/03/31 02:19:29;;;;;;;0.95;0.95;;;;;;;10.45;47.62;100004.72;5092370;28;20229;-74
2023/03/31 02:21:57;;;;;;;0.80;0.80;;;;;;;10.20;47.89;99994.84;5091866;28;20194;-74
2023/03/31 02:24:28;;;;;;;0.90;0.90;;;;;;;10.33;48.93;100005.41;5091427;28;20213;-74
2023/03/31 02:27:04;;;;;;;1.00;1.00;;;;;;;10.41;48.64;99998.59;5089093;28;20605;-74
2023/03/31 02:29:31;;;;;;;0.90;0.90;;;;;;;10.36;48.20;100000.25;5088824;28;20217;-75
2023/03/31 02:32:04;;;;;;;1.10;1.10;;;;;;;10.31;48.36;99975.09;5091839;28;20198;-74
2023/03/31 02:34:31;;;;;;;0.95;0.95;;;;;;;10.32;49.30;100000.19;5090130;28;20653;-74
2023/03/31 02:36:58;;;;;;;0.90;0.90;;;;;;;10.36;50.14;100002.84;5031735;28;20207;-75
2023/03/31 02:39:28;;;;;;;1.10;1.10;;;;;;;10.45;50.72;100002.97;5083043;28;20190;-74
2023/03/31 02:41:57;;;;;;;0.77;0.77;;;;;;;10.50;51.57;100009.94;5092016;28;20199;-75
2023/03/31 02:44:24;;;;;;;1.00;1.00;;;;;;;10.39;51.71;100015.84;5091267;28;20233;-74
2023/03/31 02:46:52;;;;;;;0.90;0.90;;;;;;;10.37;51.54;100009.78;5090708;28;20210;-75
2023/03/31 02:49:20;;;;;;;1.00;1.00;;;;;;;10.34;51.37;100014.03;5091232;28;20186;-76
2023/03/31 02:52:08;;;;;;;0.90;0.90;;;;;;;10.12;51.43;100023.19;5091475;28;20206;-74
2023/03/31 02:54:50;;;;;;;0.88;0.88;;;;;;;9.74;52.41;99994.03;5091509;28;20194;-74
2023/03/31 02:57:34;;;;;;;1.10;1.10;;;;;;;9.68;54.11;100047.44;5091915;28;20197;-75
2023/03/31 03:00:09;;;;;;;1.00;1.00;;;;;;;9.50;54.87;100050.56;5091427;28;20236;-74
2023/03/31 03:02:46;;;;;;;1.10;1.10;;;;;;;9.22;56.12;100046.59;5087495;28;20246;-75
2023/03/31 03:05:22;;;;;;;1.02;1.02;;;;;;;9.16;56.21;100043.00;5091883;28;20198;-76
2023/03/31 03:07:58;;;;;;;0.85;0.85;;;;;;;9.22;56.84;100035.38;5092526;28;20201;-76
2023/03/31 03:10:35;;;;;;;1.55;1.55;;;;;;;9.20;58.92;100045.69;5090057;28;20237;-75
2023/03/31 03:13:09;;;;;;;4.80;2.45;;;;;;;9.42;67.09;100047.84;5090134;28;20233;-76
2023/03/31 03:15:42;;;;;;;3.20;1.77;;;;;;;9.53;60.37;100050.63;5091488;28;20228;-74
2023/03/31 03:18:09;;;;;;;1.00;1.00;;;;;;;9.44;58.57;100033.22;5091872;28;20688;-75
2023/03/31 03:20:36;;;;;;;0.88;0.88;;;;;;;9.60;58.34;100047.28;5091192;28;20202;-76
2023/03/31 03:23:02;;;;;;;0.90;0.90;;;;;;;9.73;56.37;100053.59;5091475;28;20680;-75
2023/03/31 03:25:30;;;;;;;0.90;0.90;;;;;;;9.78;57.10;100057.09;5091442;28;20249;-73
2023/03/31 03:27:56;;;;;;;0.90;0.90;;;;;;;9.87;61.50;100046.94;5056115;28;20229;-74
2023/03/31 03:30:25;;;;;;;1.00;1.00;;;;;;;9.99;61.98;100064.41;5091373;28;20603;-74
2023/03/31 03:32:53;;;;;;;1.10;1.10;;;;;;;9.81;62.35;100052.00;5089764;28;20190;-75
2023/03/31 03:35:20;;;;;;;1.33;1.33;;;;;;;9.71;62.12;100060.44;5082966;28;20318;-74
2023/03/31 03:37:46;;;;;;;1.00;1.00;;;;;;;9.75;62.48;100057.06;5090320;28;20201;-74
2023/03/31 03:40:14;;;;;;;1.00;1.00;;;;;;;9.80;62.50;100050.25;5090495;28;20209;-74
2023/03/31 03:42:40;;;;;;;0.93;0.93;;;;;;;9.83;63.71;100037.34;5037738;28;20202;-73
2023/03/31 03:45:08;;;;;;;1.10;1.10;;;;;;;9.97;66.51;100030.69;5090428;28;20965;-76
2023/03/31 03:47:36;;;;;;;0.80;0.80;;;;;;;10.15;68.86;100033.63;5090804;28;20198;-78
2023/03/31 03:50:04;;;;;;;1.10;1.10;;;;;;;10.15;67.44;100036.22;5090621;28;20202;-76
2023/03/31 03:52:30;;;;;;;0.90;0.90;;;;;;;10.16;71.41;100044.84;5088655;28;20198;-77
2023/03/31 03:54:57;;;;;;;0.90;0.90;;;;;;;10.08;74.21;100043.81;5091125;28;20205;-75
2023/03/31 03:57:25;;;;;;;0.90;0.90;;;;;;;10.15;75.84;100038.78;5091007;28;20201;-77
2023/03/31 03:59:51;;;;;;;0.85;0.85;;;;;;;10.11;78.61;100031.78;5091699;28;20324;-76
2023/03/31 04:02:18;;;;;;;0.90;0.90;;;;;;;10.01;79.65;100039.38;5091331;28;20552;-77
2023/03/31 04:04:46;;;;;;;0.90;0.90;;;;;;;10.27;78.54;100026.00;5091199;28;20194;-75
2023/03/31 04:07:13;;;;;;;0.80;0.80;;;;;;;10.39;78.65;100023.63;5091109;28;20210;-76
2023/03/31 04:09:40;;;;;;;0.90;0.90;;;;;;;10.49;82.22;100016.84;5039266;28;20645;-75
2023/03/31 04:12:07;;;;;;;0.85;0.85;;;;;;;10.54;79.66;100027.28;5090675;28;20577;-75
2023/03/31 04:14:33;;;;;;;0.80;0.80;;;;;;;10.54;79.55;100032.47;5054763;28;20370;-75
2023/03/31 04:17:02;;;;;;;1.00;1.00;;;;;;;10.73;81.33;100031.88;5090866;28;20333;-75
2023/03/31 04:19:28;;;;;;;0.80;0.80;;;;;;;10.76;83.55;100030.19;5007100;28;20259;-76
2023/03/31 04:22:01;;;;;;;1.00;1.00;;;;;;;10.66;84.76;100017.09;5083975;28;20202;-75
2023/03/31 04:24:29;;;;;;;0.90;0.90;;;;;;;10.47;87.07;100012.50;5071411;28;20203;-77
2023/03/31 04:26:56;;;;;;;1.02;1.02;;;;;;;10.56;85.56;100026.44;5071260;28;20592;-76
2023/03/31 04:29:25;;;;;;;0.90;0.90;;;;;;;10.45;89.49;100031.47;5075223;28;20194;-76
2023/03/31 04:31:52;;;;;;;0.80;0.80;;;;;;;10.48;89.47;100022.88;5091326;28;20591;-76
2023/03/31 04:34:25;;;;;;;0.93;0.93;;;;;;;10.33;89.12;100026.13;5090048;28;20298;-75
2023/03/31 04:36:55;;;;;;;1.00;1.00;;;;;;;9.91;100.00;99986.56;5090297;28;20221;-76
2023/03/31 04:39:25;;;;;;;0.95;0.95;;;;;;;10.20;100.00;100026.75;5090766;28;20238;-75
2023/03/31 04:41:52;;;;;;;0.90;0.90;;;;;;;10.17;97.79;100018.94;5090865;28;20205;-76
2023/03/31 04:44:19;;;;;;;1.00;1.00;;;;;;;10.19;97.00;100014.69;5090494;28;20197;-76
2023/03/31 04:46:46;;;;;;;0.82;0.82;;;;;;;10.26;99.09;100011.34;5055136;28;20296;-75
2023/03/31 04:49:14;;;;;;;1.00;1.00;;;;;;;10.35;100.00;100014.06;5055008;28;20202;-75
2023/03/31 04:51:40;;;;;;;0.73;0.73;;;;;;;10.20;99.64;99979.28;5035194;28;20692;-76
2023/03/31 04:54:07;;;;;;;0.90;0.90;;;;;;;10.47;99.19;100007.31;5073530;28;20226;-76
2023/03/31 04:56:35;;;;;;;1.10;1.10;;;;;;;10.57;96.65;100006.56;5090854;28;20222;-75
2023/03/31 04:59:03;;;;;;;0.98;0.98;;;;;;;10.59;99.25;100015.25;5090856;28;20716;-78
2023/03/31 05:01:32;;;;;;;0.90;0.90;;;;;;;10.65;100.00;100012.75;5090557;28;20190;-74
2023/03/31 05:03:59;;;;;;;0.90;0.90;;;;;;;10.58;100.00;100005.72;5089575;28;20202;-76
2023/03/31 05:06:26;;;;;;;0.90;0.90;;;;;;;10.54;100.00;100006.53;5048463;28;20650;-74
2023/03/31 05:08:53;;;;;;;1.10;1.10;;;;;;;10.39;100.00;100000.28;5089411;28;20221;-74
2023/03/31 05:11:20;;;;;;;0.93;0.93;;;;;;;10.37;100.00;100014.09;5088898;28;20194;-74
2023/03/31 05:13:48;;;;;;;0.80;0.80;;;;;;;10.36;100.00;100017.53;5088286;28;20233;-72
2023/03/31 05:16:15;;;;;;;1.08;1.08;;;;;;;10.21;100.00;100000.03;5093795;28;20222;-75
2023/03/31 05:18:42;;;;;;;0.90;0.90;;;;;;;10.18;100.00;100005.16;5090043;28;20671;-74
2023/03/31 05:21:13;;;;;;;1.27;1.27;;;;;;;10.22;100.00;100004.38;5094160;28;20562;-75
2023/03/31 05:23:40;;;;;;;3.80;1.67;;;;;;;10.02;100.00;99989.34;5095602;28;20194;-74
2023/03/31 05:26:08;;;;;;;0.80;0.80;;;;;;;10.08;100.00;100004.97;5095497;28;20610;-75
2023/03/31 05:28:35;;;;;;;0.80;0.80;;;;;;;9.99;100.00;99994.47;5100645;28;20684;-76
2023/03/31 05:31:04;;;;;;;1.00;1.00;;;;;;;10.15;100.00;99991.28;5109837;28;20194;-74
2023/03/31 05:33:31;;;;;;;1.05;1.05;;;;;;;10.05;100.00;99995.44;5067876;28;20195;-75
2023/03/31 05:35:59;;;;;;;0.90;0.90;;;;;;;9.71;100.00;99954.28;5097300;28;20233;-78
2023/03/31 05:38:27;;;;;;;1.33;1.33;;;;;;;9.84;100.00;99995.97;5082879;28;20230;-73
2023/03/31 05:40:55;;;;;;;0.98;0.98;;;;;;;9.91;100.00;99961.56;5090522;28;20633;-73
2023/03/31 05:43:21;;;;;;;1.00;1.00;;;;;;;9.82;100.00;99992.47;5092912;28;20627;-80
2023/03/31 05:45:48;;;;;;;1.00;1.00;;;;;;;9.62;100.00;99990.41;5093842;28;20206;-78
2023/03/31 05:48:17;;;;;;;1.00;1.00;;;;;;;9.60;100.00;99986.88;5093639;28;20213;-73
2023/03/31 05:50:44;;;;;;;1.20;1.20;;;;;;;9.77;100.00;99977.72;5054241;28;20210;-75
2023/03/31 05:53:10;;;;;;;1.00;1.00;;;;;;;9.69;100.00;99968.94;5087067;28;20195;-77
2023/03/31 05:55:38;;;;;;;1.10;1.10;;;;;;;9.76;100.00;99978.56;5085335;28;20603;-78
2023/03/31 05:58:05;;;;;;;0.90;0.90;;;;;;;9.55;100.00;99973.00;5092945;28;20202;-75
2023/03/31 06:00:32;;;;;;;1.00;1.00;;;;;;;9.41;100.00;99962.44;5092820;28;20234;-74
2023/03/31 06:02:59;;;;;;;0.95;0.95;;;;;;;9.22;100.00;99945.69;5092795;28;20209;-76
2023/03/31 06:05:29;;;;;;;1.00;1.00;;;;;;;8.90;100.00;99882.19;5092817;28;20655;-76
2023/03/31 06:07:56;;;;;;;0.90;0.90;;;;;;;9.38;100.00;99952.88;5077154;28;20260;-74
2023/03/31 06:10:23;;;;;;;0.90;0.90;;;;;;;9.52;100.00;99950.56;5072735;28;20565;-76
2023/03/31 06:12:50;;;;;;;1.13;1.13;;;;;;;9.54;100.00;99947.97;5072756;28;20560;-73
2023/03/31 06:15:17;;;;;;;1.00;1.00;;;;;;;9.37;100.00;99904.59;5072662;28;20704;-75
2023/03/31 06:17:43;;;;;;;1.00;1.00;;;;;;;9.73;100.00;99942.25;5071912;28;20230;-75
2023/03/31 06:20:11;;;;;;;1.27;1.27;;;;;;;9.60;100.00;99927.34;5072152;28;20195;-75
2023/03/31 06:22:39;;;;;;;0.85;0.85;;;;;;;9.65;100.00;99936.97;5072560;28;20199;-76
2023/03/31 06:25:06;;;;;;;1.83;1.73;;;;;;;9.73;100.00;99935.38;5072573;28;20191;-75
2023/03/31 06:27:36;;;;;;;7.32;3.45;;;;;;;9.70;100.00;99921.50;5072767;28;20217;-76
2023/03/31 06:30:03;;;;;;;1.00;1.00;;;;;;;9.70;100.00;99930.13;5072902;28;20256;-76
2023/03/31 06:32:29;;;;;;;1.02;1.02;;;;;;;9.82;100.00;99929.44;5072645;28;20293;-76
2023/03/31 06:34:56;;;;;;;1.20;1.20;;;;;;;9.98;100.00;99922.78;5072141;28;20206;-77
2023/03/31 06:37:23;;;;;;;1.10;1.10;;;;;;;10.01;100.00;99899.53;5072281;28;20233;-76
2023/03/31 06:39:51;;;;;;;1.13;1.13;;;;;;;10.41;100.00;99900.13;5072612;28;20198;-76
2023/03/31 06:42:18;;;;;;;1.10;1.10;;;;;;;10.58;100.00;99902.03;5072034;28;20681;-75
2023/03/31 06:44:44;;;;;;;0.98;0.98;;;;;;;10.84;100.00;99900.63;5072011;28;20689;-75
2023/03/31 06:47:11;;;;;;;1.50;1.50;;;;;;;10.52;100.00;99793.09;5072112;28;20649;-76
2023/03/31 06:49:38;;;;;;;0.82;0.82;;;;;;;11.30;100.00;99905.41;5072129;28;20630;-76
2023/03/31 06:52:05;;;;;;;0.93;0.93;;;;;;;11.40;100.00;99895.97;5071951;28;20640;-76
2023/03/31 06:54:32;;;;;;;1.10;1.10;;;;;;;11.60;100.00;99903.91;5036864;28;20206;-76
2023/03/31 06:57:00;;;;;;;1.00;1.00;;;;;;;11.75;100.00;99915.34;5071623;28;20219;-76
2023/03/31 06:59:27;;;;;;;1.10;1.10;;;;;;;11.86;100.00;99913.69;5071929;28;20226;-77
2023/03/31 07:01:53;;;;;;;0.93;0.93;;;;;;;11.97;100.00;99918.09;5071644;28;20206;-77
2023/03/31 07:04:20;;;;;;;1.00;1.00;;;;;;;12.01;100.00;99881.75;5071770;28;20213;-77
2023/03/31 07:06:47;;;;;;;0.98;0.98;;;;;;;12.17;100.00;99916.47;5085350;28;20202;-77
2023/03/31 07:09:14;;;;;;;0.90;0.90;;;;;;;12.40;100.00;99904.47;5091758;28;20202;-75
2023/03/31 07:11:41;;;;;;;1.00;1.00;;;;;;;12.32;100.00;99899.22;5078607;28;20206;-77
2023/03/31 07:14:09;;;;;;;0.95;0.95;;;;;;;12.60;100.00;99894.16;5091952;28;20201;-76
2023/03/31 07:16:36;;;;;;;1.38;1.38;;;;;;;12.78;100.00;99894.22;5091729;28;20222;-74
2023/03/31 07:19:04;;;;;;;1.13;1.13;;;;;;;12.67;100.00;99864.69;5091631;28;20198;-75
2023/03/31 07:21:31;;;;;;;0.90;0.90;;;;;;;13.18;100.00;99875.25;5091520;28;20205;-76
2023/03/31 07:23:58;;;;;;;0.90;0.90;;;;;;;13.03;100.00;99870.00;5091505;28;20225;-76
2023/03/31 07:26:25;;;;;;;1.10;1.10;;;;;;;13.04;100.00;99870.84;5052808;28;20248;-75
2023/03/31 07:28:55;;;;;;;0.90;0.90;;;;;;;12.90;100.00;99866.50;5086249;28;20287;-79
2023/03/31 07:31:23;;;;;;;0.95;0.95;;;;;;;13.23;100.00;99880.47;5041102;28;20677;-77
2023/03/31 07:33:50;;;;;;;0.90;0.90;;;;;;;13.03;100.00;99862.19;5091908;28;20198;-77
2023/03/31 07:36:17;;;;;;;0.80;0.80;;;;;;;13.06;100.00;99858.69;5091685;28;20254;-79
2023/03/31 07:38:47;;;;;;;1.05;1.05;;;;;;;13.34;100.00;99848.34;5091536;28;20198;-78
2023/03/31 07:41:17;;;;;;;0.90;0.90;;;;;;;13.63;100.00;99848.34;5091594;28;20202;-78
2023/03/31 07:43:44;;;;;;;0.90;0.90;;;;;;;13.89;100.00;99874.34;5091562;28;20213;-77
2023/03/31 07:46:16;;;;;;;1.70;1.70;;;;;;;14.09;100.00;99864.75;5091304;28;20281;-75
2023/03/31 07:48:46;;;;;;;0.90;0.90;;;;;;;13.50;100.00;99788.44;5091251;28;20661;-77
2023/03/31 07:51:13;;;;;;;1.00;1.00;;;;;;;13.91;100.00;99870.03;5089147;28;20229;-77
2023/03/31 07:53:40;;;;;;;1.10;1.10;;;;;;;13.94;100.00;99867.41;5079473;28;20205;-76
2023/03/31 07:56:07;;;;;;;0.90;0.90;;;;;;;13.85;100.00;99868.28;5090970;28;20201;-77
2023/03/31 07:58:33;;;;;;;0.90;0.90;;;;;;;14.03;100.00;99859.56;5091137;28;20237;-76
2023/03/31 08:01:01;;;;;;;0.90;0.90;;;;;;;13.82;100.00;99851.78;5091625;28;20202;-76
2023/03/31 08:03:27;;;;;;;0.90;0.90;;;;;;;13.71;100.00;99845.72;5077470;28;20234;-76
2023/03/31 08:05:56;;;;;;;0.90;0.90;;;;;;;13.78;100.00;99824.88;5080362;28;20202;-78
2023/03/31 08:08:23;;;;;;;0.90;0.90;;;;;;;13.67;100.00;99823.13;5088894;28;20206;-78
2023/03/31 08:10:50;;;;;;;0.80;0.80;;;;;;;13.77;100.00;99825.72;5091373;28;20198;-78
2023/03/31 08:13:16;;;;;;;1.02;1.02;;;;;;;13.74;100.00;99791.88;5077075;28;20199;-76
2023/03/31 08:15:43;;;;;;;1.58;1.52;;;;;;;13.81;100.00;99793.56;5091434;28;20202;-76
2023/03/31 08:18:10;;;;;;;1.00;1.00;;;;;;;13.89;100.00;99790.97;5091392;28;20222;-74
2023/03/31 08:20:38;;;;;;;2.22;2.13;;;;;;;13.78;100.00;99770.13;5055544;28;20344;-75
2023/03/31 08:23:08;;;;;;;0.90;0.90;;;;;;;14.15;100.00;99806.50;5091243;28;20216;-77
2023/03/31 08:25:34;;;;;;;1.45;1.45;;;;;;;14.09;100.00;99794.34;5091285;28;20588;-77
2023/03/31 08:28:01;;;;;;;2.80;2.60;;;;;;;14.34;100.00;99797.75;5091474;28;20202;-76
2023/03/31 08:30:28;;;;;;;0.98;0.98;;;;;;;14.36;100.00;99802.09;5090834;28;20622;-76
2023/03/31 08:32:55;;;;;;;1.52;1.52;;;;;;;14.91;100.00;99801.75;5090949;28;20202;-78
2023/03/31 08:35:22;;;;;;;1.00;1.00;;;;;;;15.07;100.00;99792.94;5090765;28;20688;-76
2023/03/31 08:37:48;;;;;;;1.00;1.00;;;;;;;15.47;100.00;99808.28;5084199;28;20656;-77
2023/03/31 08:40:21;;;;;;;1.00;1.00;;;;;;;15.57;100.00;99783.81;5083974;28;20209;-76
2023/03/31 08:42:50;;;;;;;1.25;1.25;;;;;;;15.79;100.00;99794.06;5093817;28;20199;-76
2023/03/31 08:45:22;;;;;;;0.80;0.80;;;;;;;16.08;100.00;99790.25;5095054;28;20206;-77
2023/03/31 08:47:52;;;;;;;0.93;0.93;;;;;;;16.52;100.00;99787.91;5094906;28;20202;-76
2023/03/31 08:50:23;;;;;;;0.90;0.90;;;;;;;16.84;99.28;99784.84;5060170;28;20202;-80
2023/03/31 08:52:56;;;;;;;0.90;0.90;;;;;;;17.12;93.60;99757.34;5094594;28;20656;-77
2023/03/31 08:55:31;;;;;;;1.00;1.00;;;;;;;17.14;87.91;99780.91;5094503;28;20198;-76
2023/03/31 08:58:03;;;;;;;1.02;1.02;;;;;;;17.21;86.30;99767.69;5080050;28;20615;-77
2023/03/31 09:00:34;;;;;;;0.90;0.90;;;;;;;16.74;87.21;99750.09;5094276;28;20237;-79
2023/03/31 09:03:06;;;;;;;0.80;0.80;;;;;;;16.88;84.49;99760.34;5094482;28;20224;-77
2023/03/31 09:05:49;;;;;;;0.80;0.80;;;;;;;16.96;83.14;99758.50;5095037;28;20210;-77
2023/03/31 09:08:32;;;;;;;1.85;1.15;;;;;;;16.72;84.34;99761.50;5094235;28;20248;-76
2023/03/31 09:11:14;;;;;;;0.82;0.82;;;;;;;16.47;84.57;99740.00;5094340;28;20202;-76
2023/03/31 09:14:17;;;;;;;0.82;0.82;;;;;;;16.50;87.91;99754.81;5082053;28;20209;-76
2023/03/31 09:16:52;;;;;;;0.98;0.98;;;;;;;16.31;89.94;99752.44;4978704;28;20230;-77
2023/03/31 09:19:27;;;;;;;2.38;1.80;;;;;;;16.37;90.22;99759.34;4992345;28;20213;-77
2023/03/31 09:21:55;;;;;;;0.90;0.90;;;;;;;16.28;93.07;99749.00;4992595;28;20211;-76
2023/03/31 09:24:26;;;;;;;2.92;2.15;;;;;;;16.33;93.72;99707.94;4984710;28;20221;-76
2023/03/31 09:26:57;;;;;;;0.80;0.80;;;;;;;16.47;92.28;99731.28;4987111;28;20268;-76
2023/03/31 09:29:30;;;;;;;1.23;1.23;;;;;;;16.73;89.19;99740.50;4986660;28;20643;-77
2023/03/31 09:32:02;;;;;;;1.00;1.00;;;;;;;17.34;86.75;99727.25;4960527;28;20717;-77
2023/03/31 09:34:33;;;;;;;0.80;0.80;;;;;;;17.64;84.72;99730.25;5001893;28;20202;-76
2023/03/31 09:37:04;;;;;;;0.80;0.80;;;;;;;18.16;82.89;99720.41;5002045;28;20240;-77
2023/03/31 09:39:30;;;;;;;1.00;1.00;;;;;;;18.01;83.74;99736.50;5003404;28;20772;-76
2023/03/31 09:41:59;;;;;;;0.80;0.80;;;;;;;17.87;85.05;99722.78;4981977;28;20206;-77
2023/03/31 09:44:31;;;;;;;0.73;0.73;;;;;;;17.98;84.79;99727.81;4990879;28;20209;-78
2023/03/31 09:47:02;;;;;;;2.55;1.70;;;;;;;17.57;86.37;99707.66;4980260;28;20677;-79
2023/03/31 09:49:33;;;;;;;0.85;0.85;;;;;;;17.78;86.23;99709.84;4976974;28;20288;-76
2023/03/31 09:52:04;;;;;;;0.90;0.90;;;;;;;17.32;85.89;99697.59;4991458;28;20680;-75
2023/03/31 09:54:36;;;;;;;1.25;1.25;;;;;;;17.01;87.74;99674.59;5077460;28;20213;-75
2023/03/31 09:57:22;;;;;;;0.82;0.82;;;;;;;17.36;85.37;99711.50;5092757;28;20241;-75
2023/03/31 09:59:51;;;;;;;0.80;0.80;;;;;;;17.47;87.17;99698.22;5092798;28;20217;-75
2023/03/31 10:02:35;;;;;;;0.80;0.80;;;;;;;18.00;85.96;99697.16;5092829;28;20202;-76
2023/03/31 10:05:03;;;;;;;1.00;1.00;;;;;;;17.98;81.43;99691.94;5092874;28;20202;-74
2023/03/31 10:07:31;;;;;;;0.90;0.90;;;;;;;17.62;82.44;99676.97;5092564;28;20210;-73
2023/03/31 10:09:57;;;;;;;0.85;0.85;;;;;;;17.73;83.89;99694.19;5092730;28;20194;-74
2023/03/31 10:12:29;;;;;;;1.35;1.35;;;;;;;17.61;84.31;99686.59;5081234;28;20203;-74
2023/03/31 10:15:12;;;;;;;0.90;0.90;;;;;;;17.57;85.75;99686.69;5090426;28;20622;-76
2023/03/31 10:17:44;;;;;;;0.85;0.85;;;;;;;17.97;82.13;99681.50;5092684;28;20300;-76
2023/03/31 10:20:20;;;;;;;0.70;0.70;;;;;;;18.28;81.29;99680.78;5092617;28;20765;-76
2023/03/31 10:22:47;;;;;;;0.75;0.75;;;;;;;18.26;79.22;99686.97;5092479;28;20209;-75
2023/03/31 10:25:17;;;;;;;0.80;0.80;;;;;;;18.37;76.72;99705.94;5092420;28;20252;-76
2023/03/31 10:27:48;;;;;;;0.80;0.80;;;;;;;18.54;76.03;99679.34;5085040;28;20207;-76
2023/03/31 10:30:21;;;;;;;3.85;2.88;;;;;;;18.60;76.33;99692.31;5086657;28;20202;-77
2023/03/31 10:32:48;;;;;;;0.80;0.80;;;;;;;18.79;75.73;99680.47;5092953;28;20206;-78
2023/03/31 10:35:24;;;;;;;0.80;0.80;;;;;;;18.77;74.20;99677.00;5079121;28;20203;-78
2023/03/31 10:37:54;;;;;;;1.00;1.00;;;;;;;18.38;75.79;99644.66;5072009;28;20222;-75
2023/03/31 10:40:24;;;;;;;0.88;0.88;;;;;;;18.59;75.61;99680.09;5072253;28;20203;-76
2023/03/31 10:43:00;;;;;;;0.80;0.80;;;;;;;18.68;75.70;99665.00;5071965;28;20203;-76
2023/03/31 10:45:28;;;;;;;0.88;0.88;;;;;;;18.30;72.95;99652.72;5072426;28;20209;-77
2023/03/31 10:47:56;;;;;;;0.70;0.70;;;;;;;18.33;75.64;99659.69;5072351;28;20203;-77
2023/03/31 10:50:29;;;;;;;0.80;0.80;;;;;;;18.36;76.62;99654.34;5072146;28;20582;-77
2023/03/31 10:53:03;;;;;;;0.80;0.80;;;;;;;18.38;74.12;99659.56;5072338;28;20324;-78
2023/03/31 10:55:36;;;;;;;0.90;0.90;;;;;;;18.25;73.30;99651.13;5072100;28;20203;-77
2023/03/31 10:58:16;;;;;;;0.80;0.80;;;;;;;18.24;71.00;99650.25;5053279;28;20725;-77
2023/03/31 11:00:58;;;;;;;0.80;0.80;;;;;;;18.18;69.02;99649.53;5020326;28;20201;-77
2023/03/31 11:03:45;;;;;;;0.77;0.77;;;;;;;18.50;67.93;99633.88;5072088;28;20282;-76
2023/03/31 11:06:20;;;;;;;0.80;0.80;;;;;;;18.50;68.75;99640.91;5071624;28;20207;-77
2023/03/31 11:08:58;;;;;;;0.73;0.73;;;;;;;18.61;68.29;99610.03;5071817;28;20677;-77
2023/03/31 11:11:46;;;;;;;0.88;0.88;;;;;;;18.73;68.35;99622.81;5071772;28;20673;-76
2023/03/31 11:14:23;;;;;;;0.77;0.77;;;;;;;19.12;67.27;99619.16;5071603;28;20205;-76
2023/03/31 11:16:59;;;;;;;0.90;0.90;;;;;;;19.21;66.59;99621.56;5072220;28;20206;-76
2023/03/31 11:19:38;;;;;;;0.80;0.80;;;;;;;19.11;65.24;99635.84;5071797;28;20229;-78
2023/03/31 11:22:12;;;;;;;1.05;1.05;;;;;;;18.92;65.25;99633.72;5023711;28;20202;-77
2023/03/31 11:24:57;;;;;;;0.82;0.82;;;;;;;19.22;65.37;99625.03;5071648;28;20199;-76
2023/03/31 11:27:37;;;;;;;1.05;1.05;;;;;;;19.06;64.96;99624.59;5071740;28;20659;-77
2023/03/31 11:30:13;;;;;;;0.90;0.90;;;;;;;19.03;65.88;99615.94;5071506;28;20205;-78
2023/03/31 11:32:58;;;;;;;0.80;0.80;;;;;;;19.28;65.47;99615.22;5071537;28;20228;-77
2023/03/31 11:35:46;;;;;;;1.00;1.00;;;;;;;19.12;64.91;99590.25;5071588;28;20669;-76
2023/03/31 11:38:35;;;;;;;0.93;0.93;;;;;;;19.11;65.15;99604.31;5071262;28;20223;-76
2023/03/31 11:41:06;;;;;;;0.90;0.90;;;;;;;19.18;66.37;99598.00;5071257;28;20223;-74
2023/03/31 11:43:40;;;;;;;0.90;0.90;;;;;;;19.44;63.54;99586.75;5071202;28;20195;-74
2023/03/31 11:46:13;;;;;;;1.10;1.10;;;;;;;19.82;61.70;99580.38;5071023;28;20217;-75